• Join FlightAware (Why Join?)
  • Login
  • US Flag 
02:58PM EDT


 

Airport Tracker/Info


-or-


 

Live Flight TrackerFlight Track Log ✈ EJA922 ✈ 21-Jan-2014 ✈ KLGA - KBOI

Flight Track Log - Related Links

Times and Time Zones

All times are in EST time to prevent confusion due to time zone crossing. See the EJA922 flight status page for this flight to view local times or setup timezone preferences in your user account.

Time Position Orientation Groundspeed Altitude Reporting Facility
EST Latitude Longitude Course Direction KTS MPH feet Rate Location/Type
10:09AM 40.7394 -73.8031 297° West 233 268 3,500  Level New York Center
10:10AM 40.7956 -73.8083 356° North 240 276 6,500 3,360 Climbing New York Center
10:11AM 40.8564 -73.8714 322° Northwest 279 321 10,300 2,820 Climbing New York Center
10:12AM 40.9217 -73.9264 328° Northwest 337 388 12,200 2,340 Climbing New York Center
10:13AM 41.0111 -74.0075 326° Northwest 359 413 15,000 2,520 Climbing New York Center
10:14AM 41.0925 -74.0747 328° Northwest 376 433 17,300 2,220 Climbing New York Center
10:15AM 41.0048 -74.7399 297° West  Level Estimated
10:15AM 41.1819 -74.1536 326° Northwest 381 438 19,500  Level New York Center
10:16AM 41.2692 -74.2353 325° Northwest 381 438 21,100 1,500 Climbing New York Center
10:17AM 41.3667 -74.3178 328° Northwest 394 453 22,600 1,740 Climbing New York Center
10:18AM 41.4403 -74.4267 312° West 406 467 24,600 2,040 Climbing New York Center
10:19AM 41.4928 -74.5486 300° West 391 450 26,700 2,100 Climbing New York Center
10:20AM 41.5506 -74.6878 299° West 391 450 28,800 1,680 Climbing New York Center
10:21AM 41.6044 -74.8186 299° West 391 450 30,100 1,440 Climbing New York Center
10:22AM 41.6625 -74.9497 301° West 403 464 31,700 1,860 Climbing New York Center
10:23AM 41.7181 -75.0811 300° West 410 472 33,900 1,980 Climbing New York Center
10:24AM 41.7736 -75.2125 300° West 410 472 35,700 1,020 Climbing New York Center
10:25AM 41.8289 -75.3472 299° West 410 472 36,000 120 Climbing New York Center
10:26AM 41.8878 -75.4906 299° West 422 486 36,000  Level New York Center
10:27AM 41.9525 -75.6428 300° West 446 513 36,000 420 Level New York Center
10:28AM 42.0150 -75.7897 300° West 457 526 36,900 960 Climbing New York Center
10:29AM 42.0753 -75.9369 299° West 457 526 38,000 1,080 Climbing New York Center
10:31AM 42.1667 -76.1667 298° West 440 506 40,000 600 Climbing Toronto Center
10:32AM 42.2381 -76.3828 294° West 439 505 40,000  Level Cleveland Center
10:33AM 42.2831 -76.5336 292° West 439 505 40,000  Level Cleveland Center
10:34AM 42.3342 -76.6892 294° West 449 517 40,000  Level Cleveland Center
10:35AM 42.3831 -76.8467 293° West 450 518 40,000  Level Cleveland Center
10:36AM 42.4167 -76.9500 294° West 460 529 40,000  Level Toronto Center
10:37AM 42.4667 -77.1000 294° West 460 529 40,000 300 Level Toronto Center
10:38AM 42.5000 -77.2667 285° West 460 529 40,700 900 Climbing Toronto Center
10:39AM 42.5500 -77.4333 292° West 430 495 41,800 1,080 Climbing Toronto Center
10:40AM 42.5667 -77.5667 280° West 420 483 42,900 600 Climbing Toronto Center
10:41AM 42.6000 -77.7333 285° West 410 472 43,000  Climbing Toronto Center
10:42AM 42.6333 -77.8667 289° West 410 472 43,000  Level Toronto Center
10:43AM 42.6500 -78.0167 279° West 420 483 43,000  Level Toronto Center
10:44AM 42.6850 -78.1200 295° West 423 487 43,000  Level Cleveland Center
10:45AM 42.7161 -78.2794 285° West 439 505 43,000  Level Cleveland Center
10:46AM 42.7475 -78.4403 285° West 438 504 43,000  Level Cleveland Center
10:47AM 42.7775 -78.5981 285° West 429 494 43,000  Level Cleveland Center
10:48AM 42.8103 -78.7564 286° West 435 501 43,000  Level Cleveland Center
10:49AM 42.8381 -78.9164 283° West 436 502 43,000  Level Cleveland Center
10:50AM 42.8753 -79.1072 285° West 437 503 43,000  Level Cleveland Center
10:51AM 42.9056 -79.2661 285° West 433 498 43,000  Level Cleveland Center
10:52AM 42.9289 -79.3967 284° West 442 509 43,000  Level Cleveland Center
10:53AM 42.9592 -79.5558 285° West 432 497 43,000  Level Cleveland Center
10:54AM 42.9881 -79.7172 284° West 433 498 43,000  Level Cleveland Center
10:55AM 43.0197 -79.8775 285° West 432 497 43,000  Level Cleveland Center
10:56AM 43.0483 -80.0553 282° West 438 504 43,000  Level Cleveland Center
10:57AM 43.0764 -80.2178 283° West 447 514 43,000  Level Cleveland Center
10:58AM 43.1056 -80.3806 284° West 439 505 43,000  Level Cleveland Center
10:59AM 43.1333 -80.5450 283° West 440 506 43,000  Level Cleveland Center
11:00AM 43.1617 -80.7089 283° West 440 506 43,000  Level Cleveland Center
11:01AM 43.1894 -80.8725 283° West 440 506 43,000  Level Cleveland Center
11:02AM 43.2172 -81.0364 283° West 439 505 43,000  Level Cleveland Center
11:02AM 43.2172 -81.0364 283° West 439 505 43,000  Level Cleveland Center
11:03AM 43.2442 -81.1997 283° West 438 504 43,000  Level Cleveland Center
11:03AM 43.2442 -81.1997 283° West 438 504 43,000  Level Cleveland Center
11:04AM 43.2744 -81.3761 283° West 439 505 43,000  Level Cleveland Center
11:04AM 43.2744 -81.3761 283° West 439 505 43,000  Level Cleveland Center
11:05AM 43.3000 -81.5386 282° West 439 505 43,000  Level Cleveland Center
11:05AM 43.3000 -81.5386 282° West 439 505 43,000  Level Cleveland Center
11:06AM 43.3278 -81.7028 283° West 441 507 43,000  Level Cleveland Center
11:06AM 43.3278 -81.7028 283° West 441 507 43,000  Level Cleveland Center
11:07AM 43.3547 -81.8667 283° West 441 507 43,000  Level Cleveland Center
11:07AM 43.3547 -81.8667 283° West 441 507 43,000  Level Cleveland Center
11:08AM 43.3856 -82.0633 282° West 442 509 43,000  Level Cleveland Center
11:09AM 43.4111 -82.2269 282° West 439 505 43,000  Level Cleveland Center
11:10AM 43.4367 -82.3889 282° West 439 505 43,000  Level Cleveland Center
11:11AM 43.4622 -82.5544 282° West 440 506 43,000  Level Cleveland Center
11:12AM 43.4886 -82.7189 283° West 440 506 43,000  Level Cleveland Center
11:13AM 43.5128 -82.8825 282° West 440 506 43,000  Level Cleveland Center
11:14AM 43.5381 -83.0481 282° West 441 507 43,000  Level Cleveland Center
11:15AM 43.5617 -83.2103 281° West 441 507 43,000  Level Cleveland Center
11:16AM 43.5908 -83.4078 282° West 440 506 43,000  Level Cleveland Center
11:17AM 43.6147 -83.5700 282° West 437 503 43,000  Level Cleveland Center
11:18AM 43.6386 -83.7356 281° West 438 504 43,000  Level Cleveland Center
11:19AM 43.6617 -83.9003 281° West 439 505 43,000  Level Cleveland Center
11:20AM 43.6872 -84.0750 281° West 438 504 43,000  Level Cleveland Center
11:21AM 43.7097 -84.2403 281° West 440 506 43,000  Level Minneapolis Center
11:22AM 43.7311 -84.4064 280° West 441 507 43,000  Level Minneapolis Center
11:23AM 43.7547 -84.5733 281° West 443 510 43,000  Level Minneapolis Center
11:24AM 43.7825 -84.7739 281° West 445 512 43,000  Level Minneapolis Center
11:26AM 43.8039 -84.9400 280° West 443 510 43,000  Level Minneapolis Center
11:27AM 43.8256 -85.1081 280° West 444 511 43,000  Level Minneapolis Center
11:28AM 43.8478 -85.2750 281° West 445 512 43,000  Level Minneapolis Center
11:29AM 43.8700 -85.4417 281° West 444 511 43,000  Level Minneapolis Center
11:30AM 43.8906 -85.6089 280° West 444 511 43,000  Level Minneapolis Center
11:31AM 43.9167 -85.8119 280° West 447 514 43,000  Level Minneapolis Center
11:32AM 43.9372 -85.9817 280° West 450 518 43,000  Level Minneapolis Center
11:33AM 43.9581 -86.1500 280° West 447 514 43,000  Level Minneapolis Center
11:34AM 43.9783 -86.3178 280° West 444 511 43,000  Level Minneapolis Center
11:35AM 43.9983 -86.4872 279° West 446 513 43,000  Level Minneapolis Center
11:36AM 44.0183 -86.6556 279° West 446 513 43,000  Level Minneapolis Center
11:37AM 44.0378 -86.8250 279° West 447 514 43,000  Level Minneapolis Center
11:38AM 44.0614 -87.0281 279° West 445 512 43,000  Level Minneapolis Center
11:39AM 44.0806 -87.1986 279° West 447 514 43,000  Level Minneapolis Center
11:40AM 44.1000 -87.3800 279° West 445 512 43,000  Level Minneapolis Center
11:41AM 44.1178 -87.5506 278° West 447 514 43,000  Level Minneapolis Center
11:42AM 44.1361 -87.7214 279° West 449 517 43,000  Level Minneapolis Center
11:43AM 44.1542 -87.8911 278° West 447 514 43,000  Level Minneapolis Center
11:44AM 44.1714 -88.0617 278° West 448 516 43,000  Level Minneapolis Center
11:45AM 44.1889 -88.2325 278° West 449 517 43,000  Level Minneapolis Center
11:46AM 44.2094 -88.4367 278° West 446 513 43,000  Level Minneapolis Center
11:47AM 44.2264 -88.6058 278° West 444 511 43,000  Level Minneapolis Center
11:48AM 44.2419 -88.7781 277° West 451 519 43,000  Level Minneapolis Center
11:49AM 44.2589 -88.9481 278° West 447 514 43,000  Level Minneapolis Center
11:50AM 44.2758 -89.1142 278° West 441 507 43,000  Level Minneapolis Center
11:51AM 44.2922 -89.2853 278° West 443 510 43,000  Level Minneapolis Center
11:52AM 44.3067 -89.4603 277° West 447 514 43,000  Level Minneapolis Center
11:53AM 44.3242 -89.6667 277° West 450 518 43,000  Level Minneapolis Center
11:54AM 44.3403 -89.8383 278° West 449 517 43,000  Level Minneapolis Center
11:55AM 44.3542 -90.0117 276° West 450 518 43,000  Level Minneapolis Center
11:56AM 44.3697 -90.1853 277° West 451 519 43,000  Level Minneapolis Center
11:57AM 44.3844 -90.3578 277° West 451 519 43,000  Level Minneapolis Center
11:58AM 44.3983 -90.5319 276° West 451 519 43,000  Level Minneapolis Center
11:59AM 44.4117 -90.7081 276° West 455 524 43,000  Level Minneapolis Center
12:00PM 44.4261 -90.8831 277° West 454 522 43,000  Level Minneapolis Center
12:01PM 44.4408 -91.0761 276° West 459 528 43,000  Level Minneapolis Center
12:02PM 44.4531 -91.2514 276° West 457 526 43,000  Level Minneapolis Center
12:03PM 44.4667 -91.4294 276° West 459 528 43,000  Level Minneapolis Center
12:05PM 44.4828 -91.6403 276° West 457 526 43,000  Level Minneapolis Center
12:06PM 44.4944 -91.8164 275° West 456 525 43,000  Level Minneapolis Center
12:07PM 44.5067 -91.9925 276° West 456 525 43,000  Level Minneapolis Center
12:08PM 44.5183 -92.1700 275° West 457 526 43,000  Level Minneapolis Center
12:09PM 44.5308 -92.3456 276° West 457 526 43,000  Level Minneapolis Center
12:10PM 44.5419 -92.5222 275° West 455 524 43,000  Level Minneapolis Center
12:11PM 44.5525 -92.6981 275° West 454 522 43,000  Level Minneapolis Center
12:12PM 44.5653 -92.9069 275° West 450 518 43,000  Level Minneapolis Center
12:13PM 44.5769 -93.0814 275° West 447 514 43,000  Level Minneapolis Center
12:14PM 44.5875 -93.2569 275° West 445 512 43,000  Level Minneapolis Center
12:15PM 44.5964 -93.4333 274° West 446 513 43,000  Level Minneapolis Center
12:16PM 44.6058 -93.6089 274° West 448 516 43,000  Level Minneapolis Center
12:17PM 44.6150 -93.7839 274° West 449 517 43,000  Level Minneapolis Center
12:18PM 44.6244 -93.9569 274° West 446 513 43,000  Level Minneapolis Center
12:19PM 44.6325 -94.1317 274° West 448 516 43,000  Level Minneapolis Center
12:20PM 44.6411 -94.3058 274° West 449 517 43,000  Level Minneapolis Center
12:21PM 44.6489 -94.4792 274° West 447 514 43,000  Level Minneapolis Center
12:22PM 44.6572 -94.6722 274° West 449 517 43,000  Level Minneapolis Center
12:23PM 44.6650 -94.8478 274° West 450 518 43,000  Level Minneapolis Center
12:24PM 44.6719 -95.0233 273° West 452 520 43,000  Level Minneapolis Center
12:25PM 44.6789 -95.2003 273° West 455 524 43,000  Level Minneapolis Center
12:26PM 44.6883 -95.4111 274° West 454 522 43,000  Level Minneapolis Center
12:27PM 44.6975 -95.5875 274° West 455 524 43,000  Level Minneapolis Center
12:28PM 44.7067 -95.7653 274° West 459 528 43,000  Level Minneapolis Center
12:29PM 44.7167 -95.9428 275° West 459 528 43,000  Level Minneapolis Center
12:30PM 44.7250 -96.1186 274° West 457 526 43,000  Level Minneapolis Center
12:31PM 44.7339 -96.2961 274° West 458 527 43,000  Level Minneapolis Center
12:32PM 44.7464 -96.5075 275° West 457 526 43,000  Level Minneapolis Center
12:33PM 44.7567 -96.6825 275° West 453 521 43,000  Level Minneapolis Center
12:34PM 44.7669 -96.8567 275° West 451 519 43,000  Level Minneapolis Center
12:35PM 44.7719 -97.0314 272° West 451 519 43,000  Level Minneapolis Center
12:36PM 44.7747 -97.2069 271° West 451 519 43,000  Level Minneapolis Center
12:37PM 44.7797 -97.3814 272° West 450 518 43,000  Level Minneapolis Center
12:38PM 44.7822 -97.5922 271° West 451 519 43,000  Level Minneapolis Center
12:39PM 44.7847 -97.7667 271° West 449 517 43,000  Level Minneapolis Center
12:40PM 44.7872 -97.9414 271° West 449 517 43,000  Level Minneapolis Center
12:42PM 44.7903 -98.1156 271° West 447 514 43,000  Level Minneapolis Center
12:43PM 44.7914 -98.2889 271° West 446 513 43,000  Level Minneapolis Center
12:44PM 44.7942 -98.4625 271° West 446 513 43,000  Level Minneapolis Center
12:45PM 44.7953 -98.6708 271° West 445 512 43,000  Level Minneapolis Center
12:46PM 44.7961 -98.8453 270° West 446 513 43,000  Level Minneapolis Center
12:47PM 44.7967 -99.0189 270° West 446 513 43,000  Level Minneapolis Center
12:48PM 44.7986 -99.1944 271° West 449 517 43,000  Level Minneapolis Center
12:49PM 44.7978 -99.3728 270° West 453 521 43,000  Level Minneapolis Center
12:50PM 44.7986 -99.5486 270° West 453 521 43,000  Level Minneapolis Center
12:51PM 44.7983 -99.7256 270° West 453 521 43,000  Level Minneapolis Center
12:52PM 44.7983 -99.9394 270° West 456 525 43,000  Level Minneapolis Center
12:53PM 44.7964 -100.1161 269° West 454 522 43,000  Level Minneapolis Center
12:54PM 44.7964 -100.2958 270° West 457 526 43,000  Level Minneapolis Center
12:55PM 44.7944 -100.4767 269° West 463 533 43,000  Level Minneapolis Center
12:56PM 44.7925 -100.6547 269° West 459 528 43,000  Level Minneapolis Center
12:57PM 44.7911 -100.8583 270° West 463 533 43,000  Level Minneapolis Center
12:58PM 44.7903 -101.0219 270° West 465 535 43,000  Level Minneapolis Center
01:00PM 44.7825 -101.4514 269° West 459 528 43,000  Level Salt Lake Center
01:01PM 44.7786 -101.6219 268° West 461 531 43,000  Level Denver Center
01:03PM 44.7736 -101.8489 268° West 458 527 43,000  Level Denver Center
01:04PM 44.7686 -102.0478 268° West 457 526 43,000  Level Denver Center
01:05PM 44.7647 -102.2175 268° West 456 525 43,000  Level Denver Center
01:06PM 44.7597 -102.4169 268° West 456 525 43,000  Level Denver Center
01:07PM 44.7556 -102.5908 268° West 460 529 43,000  Level Denver Center
01:08PM 44.7506 -102.7892 268° West 459 528 43,000  Level Denver Center
01:09PM 44.7453 -102.9589 268° West 457 526 43,000  Level Denver Center
01:10PM 44.7397 -103.1281 267° West 456 525 43,000  Level Denver Center
01:11PM 44.7339 -103.3278 268° West 456 525 43,000  Level Denver Center
01:12PM 44.7292 -103.4961 268° West 453 521 43,000  Level Denver Center
01:13PM 44.7225 -103.6958 267° West 457 526 43,000  Level Denver Center
01:14PM 44.7158 -103.8647 267° West 455 524 43,000  Level Denver Center
01:15PM 44.7078 -104.0644 267° West 458 527 43,000  Level Denver Center
01:16PM 44.7008 -104.2350 267° West 458 527 43,000  Level Denver Center
01:17PM 44.6953 -104.3761 267° West 459 528 43,000  Level Salt Lake Center
01:18PM 44.6881 -104.5494 267° West 463 533 43,000  Level Salt Lake Center
01:19PM 44.6786 -104.7481 266° West 459 528 43,000  Level Salt Lake Center
01:20PM 44.6708 -104.9194 266° West 460 529 43,000  Level Salt Lake Center
01:21PM 44.6614 -105.1178 266° West 458 527 43,000  Level Salt Lake Center
01:22PM 44.6539 -105.2900 267° West 462 532 43,000  Level Salt Lake Center
01:23PM 44.6425 -105.4900 265° West 461 531 43,000  Level Salt Lake Center
01:24PM 44.6342 -105.6606 266° West 459 528 43,000  Level Salt Lake Center
01:25PM 44.6247 -105.8283 266° West 458 527 43,000  Level Salt Lake Center
01:26PM 44.6139 -106.0236 266° West 452 520 43,000  Level Salt Lake Center
01:27PM 44.6028 -106.1947 265° West 455 524 43,000  Level Salt Lake Center
01:28PM 44.5919 -106.3719 265° West 458 527 43,000  Level Salt Lake Center
01:29PM 44.5833 -106.5475 266° West 453 521 43,000  Level Salt Lake Center
01:30PM 44.5719 -106.7219 265° West 450 518 43,000  Level Salt Lake Center
01:31PM 44.5575 -106.9342 265° West 456 525 43,000  Level Salt Lake Center
01:32PM 44.5458 -107.1083 265° West 451 519 43,000  Level Salt Lake Center
01:33PM 44.5328 -107.2833 264° West 451 519 43,000  Level Salt Lake Center
01:34PM 44.5211 -107.4567 265° West 446 513 43,000  Level Salt Lake Center
01:35PM 44.5081 -107.6319 264° West 449 517 43,000  Level Salt Lake Center
01:36PM 44.4956 -107.8067 264° West 447 514 43,000  Level Salt Lake Center
01:37PM 44.4828 -107.9819 264° West 448 516 43,000  Level Salt Lake Center
01:38PM 44.4694 -108.1592 264° West 453 521 43,000  Level Salt Lake Center
01:39PM 44.4572 -108.3358 265° West 455 524 43,000  Level Salt Lake Center
01:40PM 44.4436 -108.5128 264° West 456 525 43,000  Level Salt Lake Center
01:41PM 44.4297 -108.6883 264° West 454 522 43,000  Level Salt Lake Center
01:42PM 44.4119 -108.8950 263° West 447 514 43,000  Level Salt Lake Center
01:43PM 44.3983 -109.0678 264° West 448 516 43,000  Level Salt Lake Center
01:44PM 44.3833 -109.2406 263° West 449 517 43,000  Level Salt Lake Center
01:45PM 44.3681 -109.4150 263° West 453 521 43,000  Level Salt Lake Center
01:46PM 44.3525 -109.5994 263° West 453 521 43,100  Climbing Salt Lake Center
01:48PM 44.3367 -109.7681 263° West 457 526 43,000 -60 Descending Salt Lake Center
01:49PM 44.3189 -109.9642 263° West 456 525 43,000  Level Salt Lake Center
01:50PM 44.3039 -110.1322 263° West 456 525 43,000  Level Salt Lake Center
01:51PM 44.2883 -110.3000 263° West 456 525 43,000  Level Salt Lake Center
01:52PM 44.2694 -110.4950 262° West 454 522 43,000  Level Salt Lake Center
01:53PM 44.2519 -110.6633 262° West 457 526 43,000  Level Salt Lake Center
01:54PM 44.2331 -110.8594 262° West 456 525 43,000  Level Salt Lake Center
01:55PM 44.2156 -111.0294 262° West 461 531 43,000  Level Salt Lake Center
01:56PM 44.1983 -111.1997 262° West 462 532 43,000  Level Salt Lake Center
01:57PM 44.1783 -111.3972 262° West 459 528 43,000  Level Salt Lake Center
01:58PM 44.1597 -111.5681 261° West 461 531 43,000  Level Salt Lake Center
01:59PM 44.1383 -111.7672 262° West 463 533 43,000  Level Salt Lake Center
02:00PM 44.1203 -111.9369 262° West 461 531 43,000  Level Salt Lake Center
02:01PM 44.1011 -112.1061 261° West 460 529 43,000  Level Salt Lake Center
02:02PM 44.0781 -112.3022 261° West 459 528 43,000  Level Salt Lake Center
02:03PM 44.0575 -112.4736 261° West 467 537 43,000  Level Salt Lake Center
02:04PM 44.0367 -112.6733 262° West 467 537 43,000  Level Salt Lake Center
02:05PM 44.0156 -112.8433 260° West 467 537 43,000  Level Salt Lake Center
02:06PM 43.9947 -113.0150 260° West 470 541 43,000  Level Salt Lake Center
02:07PM 43.9700 -113.2133 260° West 467 537 43,000  Level Salt Lake Center
02:08PM 43.9503 -113.3850 261° West 470 541 43,000  Level Salt Lake Center
02:09PM 43.9250 -113.5886 260° West 480 552 43,000  Level Salt Lake Center
02:10PM 43.9044 -113.7586 261° West 468 539 43,000  Level Salt Lake Center
02:11PM 43.8775 -113.9528 259° West 469 540 43,000 -1,320 Level Salt Lake Center
02:12PM 43.8567 -114.1275 261° West 460 529 40,300 -2,760 Descending Salt Lake Center
02:13PM 43.8350 -114.2844 259° West 417 480 37,400 -3,000 Descending Salt Lake Center
02:14PM 43.8158 -114.4372 260° West 401 461 34,100 -3,060 Descending Salt Lake Center
02:15PM 43.7950 -114.5928 260° West 411 473 31,200 -3,000 Descending Salt Lake Center
02:16PM 43.7725 -114.7603 260° West 440 506 28,000 -3,420 Descending Salt Lake Center
02:17PM 43.7456 -114.9528 259° West 421 484 24,200 -3,420 Descending Salt Lake Center
02:18PM 43.7247 -115.1019 259° West 399 459 21,000 -3,060 Descending Salt Lake Center
02:19PM 43.7125 -115.1994 260° West 384 442 19,000 -2,700 Descending Salt Lake Center
02:19PM 43.7053 -115.2492 259° West 390 449 18,300 -2,100 Descending Salt Lake Center
02:20PM 43.6850 -115.4014 260° West 434 499 16,300 -1,980 Descending Salt Lake Center
02:20PM 43.6822 -115.4089 243° Southwest 418 481 16,300 -1,560 Level Salt Lake Center
02:21PM 43.6594 -115.5708 259° West 409 471 14,600 -1,440 Descending Salt Lake Center
02:22PM 43.6392 -115.7172 259° West 403 464 13,500 -1,200 Descending Salt Lake Center
02:22PM 43.6364 -115.7289 252° West 404 465 13,400 -1,140 Descending Salt Lake Center
02:23PM 43.6192 -115.8531 259° West 368 423 12,400 -1,140 Descending Salt Lake Center
02:23PM 43.6158 -115.8731 257° West 368 423 12,300 -1,320 Descending Salt Lake Center
02:24PM 43.5997 -115.9825 259° West 282 325 11,000 -1,380 Descending Salt Lake Center
02:25PM 43.5986 -115.9883 255° West 300 345 10,900 -1,920 Descending Salt Lake Center
02:25PM 43.6278 -116.0789 294° West 269 310 9,100 -1,800 Descending Salt Lake Center
02:26PM 43.6275 -116.0789 180° South 272 313 9,100 -1,200 Level Salt Lake Center
02:26PM 43.6475 -116.1667 288° West 260 299 8,000 -1,080 Descending Salt Lake Center
02:27PM 43.6506 -116.1814 286° West 263 303 8,000 -600 Level Salt Lake Center
02:27PM 43.6653 -116.2461 287° West 249 287 7,500 -780 Descending Salt Lake Center
02:28PM 43.6706 -116.2719 286° West 249 287 7,200 -1,500 Descending Salt Lake Center
02:28PM 43.6836 -116.3286 288° West 220 253 6,000 -1,500 Descending Salt Lake Center
02:29PM 43.6897 -116.3525 289° West 225 259 5,700 -1,020 Descending Salt Lake Center
02:29PM 43.6742 -116.4006 246° West 202 232 5,000 -720 Descending Salt Lake Center
02:30PM 43.6619 -116.4075 202° Southwest 197 227 5,000  Level Salt Lake Center
02:30PM 43.6333 -116.4008 170° South 167 192 5,000  Level Salt Lake Center
02:31PM 43.6172 -116.3853 145° Southeast 174 200 5,000 -360 Level Salt Lake Center
02:31PM 43.6053 -116.3458 113° Southeast 174 200 4,600 -780 Descending Salt Lake Center
02:32PM 43.5958 -116.3219 119° Southeast 174 200 4,200 -1,020 Descending Salt Lake Center
02:32PM 43.5839 -116.2825 113° Southeast 144 166 3,500 -900 Descending Salt Lake Center
02:33PM 43.5781 -116.2647 114° Southeast 164 189 3,300 -240 Descending Salt Lake Center
02:34PM 43.5633 -116.2169 113° Southeast 160 184 3,200 -120 Descending Salt Lake Center